Time;durP1;ratioP1;P1;durP2;ratioP2;P2;SDS_P1;SDS_P2;PMS_P1;PMS_P2;Temp;Humidity;BMP_temperature;BMP_pressure;BME280_temperature;BME280_humidity;BME280_pressure;Samples;Min_cycle;Max_cycle;Signal;HPM_P1;HPM_P2
2023/01/22 00:01:14;;;;;;;23.37;11.00;;;;;;;-3.01;92.58;103247.66;5057530;28;20043;-73
2023/01/22 00:03:40;;;;;;;24.23;10.70;;;;;;;-3.02;92.22;103247.56;5071026;28;20033;-74
2023/01/22 00:06:06;;;;;;;26.97;11.50;;;;;;;-3.03;92.33;103246.66;5065235;28;20028;-74
2023/01/22 00:08:33;;;;;;;24.80;11.33;;;;;;;-3.04;92.35;103249.97;5070065;28;20032;-74
2023/01/22 00:10:58;;;;;;;24.50;10.50;;;;;;;-3.05;92.23;103253.31;5069201;28;20040;-74
2023/01/22 00:13:25;;;;;;;23.00;10.43;;;;;;;-3.08;92.39;103253.13;5060415;28;20031;-74
2023/01/22 00:15:51;;;;;;;21.77;10.23;;;;;;;-3.09;92.43;103257.31;5072339;28;20098;-74
2023/01/22 00:18:17;;;;;;;19.30;9.43;;;;;;;-3.11;92.31;103253.78;5071461;28;20487;-73
2023/01/22 00:20:50;;;;;;;22.13;10.40;;;;;;;-3.14;92.57;103255.22;5070851;28;20020;-74
2023/01/22 00:23:16;;;;;;;22.10;10.30;;;;;;;-3.14;92.85;103255.22;5065687;28;20467;-74
2023/01/22 00:25:41;;;;;;;20.90;9.13;;;;;;;-3.16;91.84;103257.63;5053095;28;20025;-73
2023/01/22 00:28:07;;;;;;;23.03;10.47;;;;;;;-3.18;92.30;103258.31;5063293;28;20055;-74
2023/01/22 00:30:32;;;;;;;24.43;9.87;;;;;;;-3.21;91.56;103251.38;5068346;28;20035;-73
2023/01/22 00:32:57;;;;;;;19.53;9.47;;;;;;;-3.25;92.29;103254.47;5060609;28;20024;-73
2023/01/22 00:35:23;;;;;;;21.37;10.33;;;;;;;-3.25;92.69;103255.38;5055589;28;20420;-73
2023/01/22 00:37:48;;;;;;;18.17;8.97;;;;;;;-3.26;92.43;103251.06;5058539;28;20036;-73
2023/01/22 00:40:14;;;;;;;18.60;8.60;;;;;;;-3.27;92.48;103251.81;5059569;28;20024;-73
2023/01/22 00:42:40;;;;;;;19.83;9.47;;;;;;;-3.27;91.71;103251.81;5053923;28;20120;-73
2023/01/22 00:45:06;;;;;;;20.73;10.47;;;;;;;-3.29;92.38;103245.75;5070653;28;20103;-74
2023/01/22 00:47:31;;;;;;;20.67;9.50;;;;;;;-3.30;92.22;103241.41;5066533;28;20104;-73
2023/01/22 00:49:56;;;;;;;17.73;8.40;;;;;;;-3.30;92.89;103237.97;5059388;28;20016;-73
2023/01/22 00:52:22;;;;;;;21.33;9.73;;;;;;;-3.30;92.50;103241.41;5068346;28;20009;-73
2023/01/22 00:54:47;;;;;;;20.33;9.27;;;;;;;-3.31;91.91;103242.19;5051562;28;20480;-74
2023/01/22 00:57:12;;;;;;;21.53;10.50;;;;;;;-3.32;92.16;103237.88;5063941;28;20023;-73
2023/01/22 00:59:37;;;;;;;20.63;9.97;;;;;;;-3.32;92.52;103242.97;5071004;28;20455;-74
2023/01/22 01:02:05;;;;;;;19.73;10.47;;;;;;;-3.33;92.38;103241.19;5057653;28;20023;-74
2023/01/22 01:04:30;;;;;;;20.10;10.37;;;;;;;-3.33;92.46;103241.19;5065516;28;20033;-74
2023/01/22 01:06:56;;;;;;;20.53;9.27;;;;;;;-3.33;92.60;103227.59;5064881;28;20048;-73
2023/01/22 01:09:21;;;;;;;19.63;9.27;;;;;;;-3.32;92.24;103237.88;5060542;28;20031;-73
2023/01/22 01:11:46;;;;;;;19.23;9.40;;;;;;;-3.32;92.59;103222.59;5066781;28;20047;-73
2023/01/22 01:14:11;;;;;;;23.07;10.30;;;;;;;-3.32;92.45;103226.78;5070005;28;20107;-74
2023/01/22 01:16:37;;;;;;;23.63;10.37;;;;;;;-3.33;92.13;103225.94;5070315;28;20017;-73
2023/01/22 01:19:08;;;;;;;19.97;9.27;;;;;;;-3.34;92.45;103226.69;5062264;28;20025;-73
2023/01/22 01:21:35;;;;;;;20.93;10.17;;;;;;;-3.38;92.22;103224.72;5058461;28;20028;-73
2023/01/22 01:24:01;;;;;;;21.00;9.80;;;;;;;-3.38;92.63;103223.06;5069745;28;20512;-73
2023/01/22 01:26:26;;;;;;;24.23;11.23;;;;;;;-3.39;92.40;103223.84;5035256;28;20108;-73
2023/01/22 01:28:52;;;;;;;20.90;9.50;;;;;;;-3.40;92.87;103218.63;5058812;28;20094;-74
2023/01/22 01:31:19;;;;;;;17.77;8.87;;;;;;;-3.43;92.14;103215.88;5068415;28;20017;-73
2023/01/22 01:33:45;;;;;;;20.77;10.10;;;;;;;-3.45;92.00;103213.22;5060722;28;20024;-73
2023/01/22 01:36:16;;;;;;;18.03;9.40;;;;;;;-3.45;92.28;103219.97;5066555;28;20021;-74
2023/01/22 01:38:42;;;;;;;19.27;9.15;;;;;;;-3.46;92.57;103216.53;5055767;28;20028;-73
2023/01/22 01:41:10;;;;;;;20.97;9.40;;;;;;;-3.46;92.09;103210.59;5063582;28;20112;-74
2023/01/22 01:43:36;;;;;;;23.13;10.87;;;;;;;-3.48;92.09;103209.59;5055165;28;20029;-74
2023/01/22 01:46:03;;;;;;;20.90;10.30;;;;;;;-3.51;92.44;103206.03;5068869;28;20032;-74
2023/01/22 01:48:42;;;;;;;19.63;9.63;;;;;;;-3.49;91.96;103200.19;5069806;28;20058;-73
2023/01/22 01:51:15;;;;;;;22.97;9.57;;;;;;;-3.51;92.48;103206.03;5067123;28;20047;-73
2023/01/22 01:53:43;;;;;;;21.93;10.73;;;;;;;-3.50;92.44;103199.28;5051494;28;20021;-73
2023/01/22 01:56:12;;;;;;;22.50;9.87;;;;;;;-3.53;92.67;103199.97;5051578;28;20051;-74
2023/01/22 01:58:38;;;;;;;21.40;9.83;;;;;;;-3.53;92.34;103192.31;5070086;28;20043;-73
2023/01/22 02:01:12;;;;;;;19.60;10.13;;;;;;;-3.53;92.44;103192.31;5066606;28;20032;-73
2023/01/22 02:03:39;;;;;;;24.30;11.20;;;;;;;-3.54;92.08;103189.69;5058442;28;20033;-73
2023/01/22 02:06:04;;;;;;;21.17;10.03;;;;;;;-3.56;92.91;103176.84;5069952;28;20052;-74
2023/01/22 02:08:30;;;;;;;21.73;10.07;;;;;;;-3.56;92.68;103169.19;5055860;28;20114;-73
2023/01/22 02:10:56;;;;;;;21.03;9.50;;;;;;;-3.58;92.47;103170.75;5058920;28;20476;-74
2023/01/22 02:13:28;;;;;;;21.13;10.13;;;;;;;-3.61;92.21;103173.09;5068305;28;20387;-74
2023/01/22 02:15:53;;;;;;;19.90;10.00;;;;;;;-3.63;92.26;103174.66;5069005;28;20036;-73
2023/01/22 02:18:19;;;;;;;19.77;9.17;;;;;;;-3.62;92.37;103184.06;5069916;28;20039;-73
2023/01/22 02:20:52;;;;;;;20.63;10.30;;;;;;;-3.57;92.45;103189.47;5072897;28;20502;-74
2023/01/22 02:23:17;;;;;;;23.20;10.63;;;;;;;-3.53;92.89;103189.78;5057115;28;20025;-74
2023/01/22 02:25:43;;;;;;;21.43;10.43;;;;;;;-3.46;93.07;103183.47;5071347;28;20033;-73
2023/01/22 02:28:08;;;;;;;19.37;9.63;;;;;;;-3.39;92.95;103182.22;5068679;28;20103;-73
2023/01/22 02:30:33;;;;;;;20.87;10.30;;;;;;;-3.32;93.29;103186.06;5073057;28;20028;-74
2023/01/22 02:32:58;;;;;;;24.33;11.00;;;;;;;-3.27;93.54;103180.53;5068819;28;20025;-73
2023/01/22 02:35:24;;;;;;;20.60;9.93;;;;;;;-3.21;93.34;103183.50;5070852;28;20032;-74
2023/01/22 02:37:49;;;;;;;19.50;9.87;;;;;;;-3.16;93.40;103186.34;5073103;28;20519;-74
2023/01/22 02:40:14;;;;;;;20.63;10.33;;;;;;;-3.11;94.03;103184.16;5062451;28;20081;-73
2023/01/22 02:42:40;;;;;;;22.83;10.43;;;;;;;-3.07;93.31;103188.66;5066563;28;20495;-74
2023/01/22 02:45:06;;;;;;;18.77;9.30;;;;;;;-3.02;94.03;103192.41;5071400;28;20031;-73
2023/01/22 02:47:34;;;;;;;18.97;8.90;;;;;;;-2.98;93.67;103189.28;5073212;28;20037;-73
2023/01/22 02:50:00;;;;;;;21.30;10.60;;;;;;;-2.91;93.21;103188.94;5067219;28;20034;-73
2023/01/22 02:52:25;;;;;;;18.90;10.23;;;;;;;-2.90;93.58;103188.13;5063403;28;20029;-73
2023/01/22 02:54:50;;;;;;;17.33;9.43;;;;;;;-2.86;94.05;103183.25;5071262;28;20032;-73
2023/01/22 02:57:15;;;;;;;20.20;9.90;;;;;;;-2.87;93.67;103190.03;5073738;28;20048;-74
2023/01/22 02:59:41;;;;;;;19.50;9.70;;;;;;;-2.88;93.99;103189.91;5062960;28;20415;-73
2023/01/22 03:02:06;;;;;;;20.87;10.07;;;;;;;-2.91;93.73;103186.41;5072568;28;20036;-73
2023/01/22 03:04:31;;;;;;;18.60;9.73;;;;;;;-2.93;93.45;103181.97;5062208;28;20025;-73
2023/01/22 03:06:56;;;;;;;19.43;9.43;;;;;;;-2.95;93.57;103186.97;5064784;28;20020;-74
2023/01/22 03:09:22;;;;;;;20.33;9.63;;;;;;;-2.98;93.26;103179.09;5051361;28;20029;-75
2023/01/22 03:11:47;;;;;;;19.07;9.07;;;;;;;-2.98;93.48;103174.00;5072454;28;20058;-73
2023/01/22 03:22:25;;;;;;;20.93;10.00;;;;;;;-2.97;92.63;103173.22;5063760;28;20039;-74
2023/01/22 03:24:51;;;;;;;19.40;9.57;;;;;;;-2.95;93.26;103156.41;5065501;28;20036;-74
2023/01/22 03:27:19;;;;;;;19.03;9.90;;;;;;;-2.91;93.70;103160.94;5053501;28;20021;-73
2023/01/22 03:29:44;;;;;;;19.47;9.67;;;;;;;-2.88;93.33;103154.25;5061058;28;20028;-74
2023/01/22 03:32:09;;;;;;;18.63;10.00;;;;;;;-2.87;93.59;103150.91;5059187;28;20484;-74
2023/01/22 03:34:35;;;;;;;23.17;10.50;;;;;;;-2.88;94.09;103144.06;5071144;28;20067;-74
2023/01/22 03:37:01;;;;;;;19.77;9.47;;;;;;;-2.90;93.47;103138.88;5058585;28;20460;-73
2023/01/22 03:39:26;;;;;;;20.50;9.90;;;;;;;-2.90;93.72;103142.28;5062915;28;20047;-74
2023/01/22 03:41:52;;;;;;;20.47;9.27;;;;;;;-2.92;93.42;103132.78;5063074;28;20037;-74
2023/01/22 03:44:17;;;;;;;18.43;9.03;;;;;;;-2.94;93.37;103135.25;5061500;28;20028;-73
2023/01/22 03:46:42;;;;;;;19.37;9.73;;;;;;;-2.93;93.74;103137.00;5069287;28;20036;-73
2023/01/22 03:49:10;;;;;;;18.43;9.03;;;;;;;-2.95;93.64;103141.13;5059303;28;20025;-73
2023/01/22 03:51:36;;;;;;;19.03;9.60;;;;;;;-2.95;93.69;103137.66;5064210;28;20074;-74
2023/01/22 03:54:02;;;;;;;17.77;9.47;;;;;;;-2.95;94.03;103132.56;5065000;28;20032;-73
2023/01/22 03:56:27;;;;;;;18.77;9.47;;;;;;;-2.96;93.39;103139.34;5057680;28;20059;-73
2023/01/22 03:58:53;;;;;;;18.03;9.23;;;;;;;-2.96;93.68;103141.00;5070557;28;20031;-73
2023/01/22 04:01:21;;;;;;;15.93;8.67;;;;;;;-2.95;94.30;103143.66;5064394;28;20056;-73
2023/01/22 04:03:47;;;;;;;17.07;8.50;;;;;;;-2.91;94.79;103138.00;5066530;28;20086;-73
2023/01/22 04:06:12;;;;;;;18.87;9.37;;;;;;;-2.87;94.11;103138.19;5060836;28;20032;-73
2023/01/22 04:08:40;;;;;;;20.73;9.93;;;;;;;-2.87;94.69;103133.09;5058069;28;20020;-73
2023/01/22 04:11:06;;;;;;;19.13;9.40;;;;;;;-2.86;93.79;103137.41;5061888;28;20447;-73
2023/01/22 04:13:33;;;;;;;17.53;9.47;;;;;;;-2.86;94.61;103139.94;5052639;28;20543;-73
2023/01/22 04:15:59;;;;;;;18.63;9.20;;;;;;;-2.86;94.47;103145.03;5053821;28;20033;-74
2023/01/22 04:18:24;;;;;;;17.23;9.27;;;;;;;-2.86;94.40;103142.50;5057225;28;20047;-73
2023/01/22 04:20:51;;;;;;;17.07;8.90;;;;;;;-2.85;93.85;103144.25;5072460;28;20096;-73
2023/01/22 04:23:17;;;;;;;17.17;8.40;;;;;;;-2.84;93.87;103140.94;5061698;28;20029;-74
2023/01/22 04:25:43;;;;;;;21.17;9.97;;;;;;;-2.77;94.01;103138.03;5056503;28;20032;-73
2023/01/22 04:28:09;;;;;;;19.63;9.97;;;;;;;-2.73;94.07;103137.44;5072358;28;20028;-73
2023/01/22 04:30:36;;;;;;;19.50;9.93;;;;;;;-2.72;93.88;103141.75;5063679;28;20104;-74
2023/01/22 04:33:01;;;;;;;20.30;10.00;;;;;;;-2.67;93.95;103140.41;5061859;28;20366;-74
2023/01/22 04:35:26;;;;;;;19.20;9.40;;;;;;;-2.63;94.09;103132.19;5036017;28;20496;-73
2023/01/22 04:37:52;;;;;;;21.13;9.90;;;;;;;-2.58;94.63;103126.50;5060035;28;20028;-73
2023/01/22 04:40:19;;;;;;;17.27;8.73;;;;;;;-2.54;94.08;103131.91;5065973;28;20033;-73
2023/01/22 04:42:44;;;;;;;18.57;9.40;;;;;;;-2.52;94.47;103121.78;5061783;28;20533;-73
2023/01/22 04:45:10;;;;;;;19.53;9.87;;;;;;;-2.47;94.42;103123.84;5055965;28;20108;-74
2023/01/22 04:47:39;;;;;;;16.60;8.93;;;;;;;-2.45;94.04;103123.97;5065699;28;20035;-73
2023/01/22 04:50:05;;;;;;;17.00;9.00;;;;;;;-2.41;94.72;103135.25;5069233;28;20034;-73
2023/01/22 04:52:30;;;;;;;20.83;9.87;;;;;;;-2.40;94.28;103122.59;5065929;28;20103;-73
2023/01/22 04:54:55;;;;;;;19.43;9.37;;;;;;;-2.36;93.68;103126.22;5058558;28;20081;-73
2023/01/22 04:57:20;;;;;;;17.90;8.97;;;;;;;-2.33;93.45;103124.75;5070022;28;20115;-73
2023/01/22 04:59:46;;;;;;;18.80;8.97;;;;;;;-2.29;94.20;103128.38;5053669;28;20024;-73
2023/01/22 05:02:11;;;;;;;18.87;9.07;;;;;;;-2.27;93.57;103119.16;5063604;28;21527;-74
2023/01/22 05:04:36;;;;;;;18.27;8.40;;;;;;;-2.24;93.52;103121.03;5057945;28;20428;-73
2023/01/22 05:07:01;;;;;;;19.07;9.13;;;;;;;-2.24;93.04;103115.94;5071672;28;20035;-73
2023/01/22 05:09:27;;;;;;;18.27;9.37;;;;;;;-2.25;92.64;103119.28;5066858;28;20447;-73
2023/01/22 05:11:52;;;;;;;18.30;9.30;;;;;;;-2.25;93.47;103124.38;5047813;28;20036;-73
2023/01/22 05:14:17;;;;;;;17.57;8.73;;;;;;;-2.29;93.15;103126.72;5066683;28;20486;-73
2023/01/22 05:16:42;;;;;;;19.20;9.83;;;;;;;-2.30;92.65;103127.50;5068637;28;20443;-73
2023/01/22 05:19:08;;;;;;;18.83;9.43;;;;;;;-2.31;93.09;103125.75;5054356;28;20076;-73
2023/01/22 05:21:33;;;;;;;17.33;8.27;;;;;;;-2.29;93.01;103129.28;5065474;28;20511;-73
2023/01/22 05:23:58;;;;;;;18.90;9.53;;;;;;;-2.27;93.41;103121.72;5064773;28;20029;-73
2023/01/22 05:26:24;;;;;;;17.70;8.83;;;;;;;-2.26;93.51;103123.47;5067334;28;20028;-73
2023/01/22 05:28:49;;;;;;;19.27;9.17;;;;;;;-2.23;93.37;103127.91;5066035;28;20192;-73
2023/01/22 05:31:14;;;;;;;17.30;8.97;;;;;;;-2.23;93.50;103130.47;5064386;28;20032;-73
2023/01/22 05:33:39;;;;;;;16.67;9.10;;;;;;;-2.21;93.51;103132.31;5064077;28;20028;-73
2023/01/22 05:36:05;;;;;;;16.50;8.40;;;;;;;-2.21;93.28;103141.63;5067102;28;20047;-73
2023/01/22 05:38:31;;;;;;;16.00;8.63;;;;;;;-2.19;92.90;103146.03;5054033;28;20025;-73
2023/01/22 05:40:56;;;;;;;14.53;7.70;;;;;;;-2.15;93.45;103149.66;5064064;28;20525;-73
2023/01/22 05:43:24;;;;;;;17.00;8.60;;;;;;;-2.15;93.87;103147.13;5061002;28;20460;-73
2023/01/22 05:45:50;;;;;;;18.43;8.80;;;;;;;-2.10;93.39;103155.97;5067630;28;20259;-74
2023/01/22 05:48:15;;;;;;;19.90;9.63;;;;;;;-2.09;93.12;103150.06;5055468;28;20245;-73
2023/01/22 05:50:40;;;;;;;16.07;8.60;;;;;;;-2.08;92.77;103149.28;5056794;28;20039;-73
2023/01/22 05:53:06;;;;;;;16.87;8.93;;;;;;;-2.07;92.46;103145.06;5069026;28;20384;-74
2023/01/22 05:55:33;;;;;;;15.60;8.47;;;;;;;-2.08;93.11;103144.19;5067031;28;20060;-74
2023/01/22 05:57:58;;;;;;;19.43;9.07;;;;;;;-2.05;93.59;103152.00;5060147;28;20040;-73
2023/01/22 06:00:24;;;;;;;19.90;9.37;;;;;;;-2.05;93.36;103148.59;5058488;28;20093;-73
2023/01/22 06:02:57;;;;;;;16.37;9.00;;;;;;;-2.05;93.22;103149.47;5072437;28;20460;-74
2023/01/22 06:05:22;;;;;;;18.07;9.07;;;;;;;-2.02;93.29;103148.78;5064652;28;20024;-74
2023/01/22 06:07:47;;;;;;;19.33;9.67;;;;;;;-2.02;93.37;103144.56;5055507;28;20067;-73
2023/01/22 06:10:13;;;;;;;20.53;9.87;;;;;;;-2.02;93.10;103147.09;5066890;28;20040;-73
2023/01/22 06:12:38;;;;;;;17.97;9.13;;;;;;;-2.04;92.88;103151.22;5058155;28;20375;-73
2023/01/22 06:15:04;;;;;;;13.97;7.80;;;;;;;-2.02;93.03;103153.88;5068524;28;20463;-74
2023/01/22 06:17:29;;;;;;;17.30;8.73;;;;;;;-2.02;93.08;103157.31;5063848;28;20028;-73
2023/01/22 06:19:54;;;;;;;15.47;8.60;;;;;;;-2.02;92.77;103149.66;5061945;28;20487;-73
2023/01/22 06:22:19;;;;;;;17.43;9.37;;;;;;;-2.01;93.08;103153.09;5063393;28;20032;-73
2023/01/22 06:24:45;;;;;;;21.77;9.90;;;;;;;-2.00;93.40;103153.19;5071633;28;20031;-73
2023/01/22 06:27:10;;;;;;;18.03;8.83;;;;;;;-2.01;93.17;103153.97;5065198;28;20334;-73
2023/01/22 06:29:35;;;;;;;17.83;9.30;;;;;;;-2.00;93.49;103148.09;5056185;28;20082;-74
2023/01/22 06:32:01;;;;;;;18.57;9.77;;;;;;;-2.00;93.42;103150.66;5062501;28;20388;-73
2023/01/22 06:34:26;;;;;;;20.70;10.27;;;;;;;-2.00;93.06;103148.09;5061101;28;20085;-73
2023/01/22 06:36:51;;;;;;;20.73;10.07;;;;;;;-2.01;93.08;103148.88;5068363;28;20405;-73
2023/01/22 06:39:16;;;;;;;16.47;8.67;;;;;;;-2.01;93.50;103156.53;5061301;28;20035;-73
2023/01/22 06:41:42;;;;;;;16.50;8.63;;;;;;;-2.00;93.47;103158.28;5062918;28;20024;-73
2023/01/22 06:44:07;;;;;;;21.37;9.93;;;;;;;-1.99;93.23;103154.97;5063674;28;20387;-73
2023/01/22 06:46:32;;;;;;;17.77;9.73;;;;;;;-1.95;93.04;103155.16;5060637;28;20105;-74
2023/01/22 06:49:00;;;;;;;19.77;10.20;;;;;;;-1.95;93.65;103150.06;5071429;28;20028;-73
2023/01/22 06:51:26;;;;;;;19.73;9.47;;;;;;;-1.95;93.13;103162.81;5061323;28;20024;-74
2023/01/22 06:53:51;;;;;;;20.87;9.90;;;;;;;-1.95;93.86;103155.16;5062177;28;20032;-74
2023/01/22 06:56:16;;;;;;;18.77;9.80;;;;;;;-1.95;93.28;103150.06;5061738;28;20064;-74
2023/01/22 06:58:41;;;;;;;18.90;9.60;;;;;;;-1.93;93.83;103153.59;5070499;28;20028;-73
2023/01/22 07:01:08;;;;;;;20.27;9.97;;;;;;;-1.92;92.96;103165.56;5064526;28;20032;-74
2023/01/22 07:03:33;;;;;;;19.10;9.60;;;;;;;-1.93;92.67;103166.34;5065006;28;20063;-74
2023/01/22 07:06:00;;;;;;;18.47;9.57;;;;;;;-1.93;93.29;103158.69;5067817;28;20060;-74
2023/01/22 07:08:27;;;;;;;18.90;10.67;;;;;;;-1.92;93.54;103168.13;5062786;28;20056;-73
2023/01/22 07:10:52;;;;;;;20.67;9.80;;;;;;;-1.93;92.90;103159.56;5054639;28;20049;-74
2023/01/22 07:13:18;;;;;;;18.40;9.97;;;;;;;-1.91;93.83;103162.22;5058255;28;20025;-73
2023/01/22 07:15:43;;;;;;;17.27;9.77;;;;;;;-1.90;93.64;103161.44;5066327;28;20025;-73
2023/01/22 07:18:10;;;;;;;19.83;9.63;;;;;;;-1.90;93.54;103164.00;5064097;28;20064;-73
2023/01/22 07:20:35;;;;;;;21.00;10.67;;;;;;;-1.89;94.10;103166.63;5070601;28;20032;-74
2023/01/22 07:23:00;;;;;;;17.93;8.70;;;;;;;-1.89;93.33;103166.63;5066576;28;20122;-73
2023/01/22 07:25:26;;;;;;;17.90;8.00;;;;;;;-1.87;93.15;103159.97;5054828;28;20075;-74
2023/01/22 07:27:57;;;;;;;17.37;9.40;;;;;;;-1.86;93.29;103166.84;5056484;28;20036;-74
2023/01/22 07:30:22;;;;;;;19.77;9.10;;;;;;;-1.87;92.88;103166.72;5061967;28;20368;-73
2023/01/22 07:32:47;;;;;;;17.27;8.80;;;;;;;-1.87;94.09;103159.97;5067559;28;20032;-73
2023/01/22 07:35:13;;;;;;;19.03;8.90;;;;;;;-1.86;93.28;103166.84;5060760;28;20032;-74
2023/01/22 07:37:38;;;;;;;17.50;9.30;;;;;;;-1.84;93.59;103161.81;5058228;28;20033;-73
2023/01/22 07:40:04;;;;;;;16.50;8.77;;;;;;;-1.83;93.13;103161.94;5070626;28;20025;-74
2023/01/22 07:42:30;;;;;;;17.53;9.43;;;;;;;-1.81;93.62;103169.66;5062477;28;20028;-73
2023/01/22 07:44:55;;;;;;;16.40;8.70;;;;;;;-1.81;92.85;103169.66;5060841;28;20632;-74
2023/01/22 07:47:20;;;;;;;16.37;9.23;;;;;;;-1.82;92.92;103167.91;5061871;28;20048;-73
2023/01/22 07:49:45;;;;;;;17.90;9.73;;;;;;;-1.79;93.05;103167.22;5065670;28;20486;-74
2023/01/22 07:52:11;;;;;;;16.03;8.23;;;;;;;-1.78;93.64;103169.88;5054613;28;20527;-74
2023/01/22 07:54:36;;;;;;;17.17;8.50;;;;;;;-1.76;93.29;103170.84;5067682;28;20032;-74
2023/01/22 07:57:02;;;;;;;15.77;8.60;;;;;;;-1.73;93.47;103177.81;5069834;28;20028;-74
2023/01/22 07:59:28;;;;;;;17.13;9.03;;;;;;;-1.71;93.50;103174.56;5057809;28;20511;-73
2023/01/22 08:01:54;;;;;;;18.83;9.83;;;;;;;-1.65;93.66;103178.28;5062612;28;20032;-73
2023/01/22 08:04:19;;;;;;;19.67;9.63;;;;;;;-1.62;93.58;103176.78;5067563;28;20401;-73
2023/01/22 08:06:44;;;;;;;16.47;8.77;;;;;;;-1.59;93.61;103178.69;5064890;28;20028;-73
2023/01/22 08:09:10;;;;;;;18.80;9.50;;;;;;;-1.57;93.31;103179.66;5070399;28;20028;-73
2023/01/22 08:11:35;;;;;;;18.00;9.23;;;;;;;-1.55;93.54;103184.06;5058831;28;20045;-73
2023/01/22 08:14:00;;;;;;;17.00;9.43;;;;;;;-1.51;93.23;103186.81;5053546;28;20043;-73
2023/01/22 08:16:26;;;;;;;19.03;9.47;;;;;;;-1.50;92.95;103186.91;5052483;28;20065;-73
2023/01/22 08:18:51;;;;;;;16.13;9.07;;;;;;;-1.48;93.05;103192.13;5060124;28;20086;-74
2023/01/22 08:21:16;;;;;;;15.40;9.00;;;;;;;-1.43;93.52;103186.50;5071607;28;20031;-73
2023/01/22 08:23:42;;;;;;;14.87;8.43;;;;;;;-1.44;93.27;103184.72;5071387;28;20412;-74
2023/01/22 08:26:07;;;;;;;14.77;8.37;;;;;;;-1.42;93.66;103184.81;5072303;28;20030;-73
2023/01/22 08:28:32;;;;;;;15.27;8.23;;;;;;;-1.38;92.96;103189.34;5069994;28;20054;-74
2023/01/22 08:30:59;;;;;;;15.27;8.13;;;;;;;-1.35;93.03;103191.19;5056897;28;20064;-73
2023/01/22 08:33:25;;;;;;;15.60;8.67;;;;;;;-1.33;93.23;103189.59;5071241;28;20024;-74
2023/01/22 08:35:50;;;;;;;15.47;7.80;;;;;;;-1.32;92.68;103192.28;5072029;28;20044;-73
2023/01/22 08:38:16;;;;;;;14.47;8.20;;;;;;;-1.27;92.93;103190.00;5066173;28;20032;-73
2023/01/22 08:40:41;;;;;;;13.20;7.77;;;;;;;-1.26;93.36;103187.53;5069650;28;20437;-73
2023/01/22 08:43:06;;;;;;;13.70;8.07;;;;;;;-1.23;92.97;103187.72;5066530;28;20029;-74
2023/01/22 08:45:32;;;;;;;12.07;7.17;;;;;;;-1.20;92.80;103189.59;5065582;28;20025;-73
2023/01/22 08:47:59;;;;;;;15.07;7.37;;;;;;;-1.20;92.14;103199.81;5062817;28;20025;-73
2023/01/22 08:50:25;;;;;;;12.50;7.30;;;;;;;-1.19;92.64;103199.00;5047980;28;20055;-73
2023/01/22 08:52:50;;;;;;;13.90;7.40;;;;;;;-1.18;92.89;103198.19;5063724;28;20459;-73
2023/01/22 08:55:15;;;;;;;14.73;7.17;;;;;;;-1.17;93.03;103192.31;5067169;28;20024;-74
2023/01/22 08:57:41;;;;;;;14.53;7.90;;;;;;;-1.15;92.53;103187.31;5041082;28;20449;-73
2023/01/22 09:00:07;;;;;;;12.93;7.00;;;;;;;-1.16;93.25;103194.06;5061052;28;20039;-73
2023/01/22 09:02:33;;;;;;;14.77;7.57;;;;;;;-1.15;92.71;103190.72;5066042;28;20028;-73
2023/01/22 09:04:58;;;;;;;13.57;6.90;;;;;;;-1.16;93.16;103196.63;5065260;28;20032;-74
2023/01/22 09:07:23;;;;;;;11.77;6.93;;;;;;;-1.16;92.43;103199.19;5047140;28;20437;-73
2023/01/22 09:09:49;;;;;;;12.60;6.83;;;;;;;-1.15;93.15;103200.94;5064372;28;20063;-73
2023/01/22 09:12:14;;;;;;;12.57;7.33;;;;;;;-1.12;92.98;103201.16;5068137;28;20028;-74
2023/01/22 09:14:39;;;;;;;11.27;6.23;;;;;;;-1.10;92.77;103204.69;5061756;28;20407;-73
2023/01/22 09:17:05;;;;;;;12.20;6.70;;;;;;;-1.09;92.85;103203.88;5065292;28;20483;-73
2023/01/22 09:19:30;;;;;;;13.93;7.40;;;;;;;-1.08;92.87;103208.22;5068201;28;20027;-73
2023/01/22 09:21:55;;;;;;;12.87;7.13;;;;;;;-1.09;92.67;103206.44;5060834;28;20352;-74
2023/01/22 09:24:21;;;;;;;11.27;6.60;;;;;;;-1.08;92.69;103207.31;5063881;28;20037;-74
2023/01/22 09:26:46;;;;;;;11.67;6.83;;;;;;;-1.10;93.25;103204.69;5056813;28;20033;-73
2023/01/22 09:29:11;;;;;;;11.40;6.30;;;;;;;-1.09;93.00;103206.44;5075161;28;20481;-73
2023/01/22 09:31:37;;;;;;;10.53;5.93;;;;;;;-1.05;92.83;103211.75;5075972;28;20160;-74
2023/01/22 09:34:02;;;;;;;11.53;6.60;;;;;;;-1.01;92.67;103206.91;5071227;28;20028;-73
2023/01/22 09:36:28;;;;;;;10.20;6.10;;;;;;;-0.97;92.68;103213.97;5069151;28;20097;-74
2023/01/22 09:38:54;;;;;;;10.53;5.63;;;;;;;-0.95;92.78;103214.06;5071186;28;20042;-74
2023/01/22 09:41:29;;;;;;;11.77;6.53;;;;;;;-0.96;92.61;103215.75;5070264;28;20119;-74
2023/01/22 09:44:13;;;;;;;11.60;6.90;;;;;;;-0.92;92.39;103216.81;5070245;28;20460;-73
2023/01/22 09:46:43;;;;;;;12.10;6.67;;;;;;;-0.94;93.12;103220.94;5073864;28;20055;-74
2023/01/22 09:49:18;;;;;;;11.03;7.00;;;;;;;-0.96;92.78;103218.31;5074276;28;20027;-73
2023/01/22 09:51:47;;;;;;;13.03;6.50;;;;;;;-0.98;92.70;103212.22;5072588;28;20030;-73
2023/01/22 09:54:15;;;;;;;13.13;7.47;;;;;;;-0.92;92.06;103214.25;5078362;28;20039;-74
2023/01/22 09:56:43;;;;;;;12.37;6.70;;;;;;;-0.88;92.73;103222.97;5073163;28;20020;-74
2023/01/22 09:59:15;;;;;;;13.27;7.07;;;;;;;-0.88;91.82;103222.97;5039323;28;20027;-74
2023/01/22 10:01:44;;;;;;;13.40;6.83;;;;;;;-0.86;92.34;103223.94;5073351;28;20111;-73
2023/01/22 10:04:41;;;;;;;12.37;6.43;;;;;;;-0.86;91.83;103213.72;5071611;28;20033;-73
2023/01/22 10:07:18;;;;;;;11.50;6.37;;;;;;;-0.88;91.67;103228.06;5059003;28;20066;-74
2023/01/22 10:09:51;;;;;;;10.97;6.90;;;;;;;-0.87;91.95;103232.41;5061957;28;20056;-73
2023/01/22 10:12:16;;;;;;;11.80;6.57;;;;;;;-0.88;92.22;103235.75;5076268;28;20489;-73
2023/01/22 10:14:42;;;;;;;12.97;6.83;;;;;;;-0.89;91.56;103229.78;5077091;28;20027;-74
2023/01/22 10:17:18;;;;;;;12.43;6.77;;;;;;;-0.90;91.83;103228.00;5070924;28;20059;-74
2023/01/22 10:19:49;;;;;;;11.20;5.97;;;;;;;-0.89;91.81;103228.88;5078629;28;20032;-74
2023/01/22 10:22:23;;;;;;;11.07;6.73;;;;;;;-0.89;91.91;103227.22;5074005;28;20032;-73
2023/01/22 10:24:49;;;;;;;10.70;6.40;;;;;;;-0.90;91.46;103225.44;5074104;28;20063;-74
2023/01/22 10:27:18;;;;;;;12.77;7.37;;;;;;;-0.88;91.52;103225.53;5078275;28;20064;-74
2023/01/22 10:29:56;;;;;;;10.73;6.30;;;;;;;-0.88;91.80;103228.06;5075563;28;20107;-74
2023/01/22 10:32:25;;;;;;;13.63;7.10;;;;;;;-0.88;91.93;103231.53;5078510;28;20042;-74
2023/01/22 10:35:19;;;;;;;11.03;6.57;;;;;;;-0.87;91.31;103222.19;5077388;28;20116;-73
2023/01/22 10:37:46;;;;;;;11.63;6.47;;;;;;;-0.88;91.83;103226.44;5075218;28;20506;-73
2023/01/22 10:40:37;;;;;;;12.17;6.10;;;;;;;-0.86;92.40;103229.97;5075583;28;20475;-73
2023/01/22 10:43:11;;;;;;;10.45;6.10;;;;;;;-0.84;91.84;103228.34;5071658;28;20039;-73
2023/01/22 10:45:38;;;;;;;11.03;6.70;;;;;;;-0.83;92.08;103222.44;5073286;28;20571;-73
2023/01/22 10:48:09;;;;;;;9.80;6.13;;;;;;;-0.82;92.44;103226.78;5070374;28;20029;-73
2023/01/22 10:50:34;;;;;;;13.13;6.75;;;;;;;-0.81;92.09;103225.97;5068015;28;20026;-73
2023/01/22 10:53:02;;;;;;;11.43;7.10;;;;;;;-0.76;91.51;103226.25;5071951;28;20026;-73
2023/01/22 10:55:31;;;;;;;11.17;6.83;;;;;;;-0.75;91.57;103212.69;5072570;28;20039;-73
2023/01/22 10:58:04;;;;;;;11.47;6.77;;;;;;;-0.72;92.19;103206.88;5071851;28;20432;-74
2023/01/22 11:00:36;;;;;;;10.63;6.50;;;;;;;-0.66;91.66;103214.91;5054691;28;20032;-74
2023/01/22 11:03:17;;;;;;;11.73;6.57;;;;;;;-0.64;91.50;103208.22;5073607;28;20037;-74
2023/01/22 11:05:45;;;;;;;11.20;6.43;;;;;;;-0.59;91.81;103203.34;5073729;28;20723;-74
2023/01/22 11:08:15;;;;;;;12.30;6.77;;;;;;;-0.60;91.90;103212.72;5069589;28;20301;-75
2023/01/22 11:10:50;;;;;;;12.17;6.43;;;;;;;-0.55;91.54;103208.78;5072107;28;20114;-74
2023/01/22 11:13:22;;;;;;;10.77;6.67;;;;;;;-0.50;91.37;103207.34;5071995;28;20116;-74
2023/01/22 11:15:56;;;;;;;10.57;6.80;;;;;;;-0.49;91.64;103201.44;5069257;28;20028;-73
2023/01/22 11:18:35;;;;;;;10.00;6.70;;;;;;;-0.44;91.11;103208.50;5070960;28;20401;-74
2023/01/22 11:21:09;;;;;;;11.07;6.50;;;;;;;-0.42;91.26;103202.66;5075344;28;20032;-73
2023/01/22 11:24:00;;;;;;;10.40;6.70;;;;;;;-0.37;91.05;103195.28;5075386;28;20052;-74